Hovedside
METAR-TAF:

METAR-TAF

Lufthavner :

Cap Skirring, Senegal

breddegrad: 12-24N, lengdegrad: 016-45W, høyde over havet: 16 m

Gjeldene værobservasjon

Denne rapporten ble laget for 1 time og 3 minutter siden, klokken 03:00 UTC
Vind 6 kt fra Nord
Temperatur 21°C
Luftfuktighet 88%
Trykk 1011 hPa
Sikt 10 km eller mer
ingen skyer under 1500 m og ingen bygeskyer

METAR: GOGS 290300Z 36006KT CAVOK 21/19 Q1011

Tid: 04:03 (04:03 UTC)

Varsel

Denne rapporten ble laget for 10 timer og 58 minutter siden, klokken 17:05 UTC
Varsel gyldig fra 28. klokken 18 UTC til 29. klokken 18 UTC
Vind 10 kt fra Nordøst
Sikt 10 km eller mer
ingen skyer under 1500 m og ingen bygeskyer

TAF: GOGS 281705Z 2818/2918 04010KT CAVOK

Værobservasjoner og værvarsel for over 4000 flyplasser (METAR- og TAF-rapporter).

Tilgjengelige stasjoner er representert av de røde og gule prikkene på kartet.

Hold musepekeren over prikken for å se navnet på stasjonen.

Klikk så for å se værobservasjoner og -varsler.

For å forandre kartet kan du klikke på den grønne knappen med svart kryss for å zoome inn, på den grønne knappen med strek for å zoome ut, eller på de grønne pilene for å se tilstøtende kart.


METAR-TAF: